logo
App data

Patrician III

Patrician III - sequel to the award winning game Patrician II - features advanced in-game AI, which adjusts its difficulty based on experience and ability. In this economic sandbox game you can gain wealth and power in multiple ways - what you will do with it is up to you.
Store | Hub | SteamDB
Developer: Ascaron Entertainment ltd. Publisher: Kalypso Media Digital
Genre: RPG, Simulation, Strategy
Languages: English
Tags: Strategy (56), Simulation (50), Trading (35), RPG (32), Economy (29), Management (28), Historical (28)
Category: Single-player
Release date: Nov 18, 2010
Price: $4.99
Score rank: 46% Userscore: 78% Old userscore: 78% Metascore: 75%
Owners: 100,000 .. 200,000
Followers: 1,361
Peak concurrent players yesterday: 27
YouTube stats: 326 views and 11 comments for videos uploaded last week, 3 new videos uploaded yesterday.
Playtime total: 14:05 (average) 00:47 (median)

Steam Spy is still in beta, so expect major bugs.

Owners data:

Access restricted.

This feature is only available to users with special access rights. Sorry.

If you want to proceed, you need to register or log in first and then back Steam Spy on Patreon. Look for Indie or Pro pledge.

Don't forget to use the same email as on Steam Spy!

Audience in 2 weeks:

Access restricted.

This feature is only available to users with special access rights. Sorry.

If you want to proceed, you need to register or log in first and then back Steam Spy on Patreon. Look for Indie or Pro pledge.

Don't forget to use the same email as on Steam Spy!

Peak daily concurrent players:

CCU data courtesy of SteamDB. Used with permission.

Hourly concurrent players:

Daily Twitch stats:

Hourly Twitch stats:

YouTube:

The views data is based on top 50 videos uploaded last week. Actual number of views might be more than the number shown.

The displayed number of videos uploaded yesterday is limited to 50, so if there were more videos uploaded, the number will still show 50.

If the game has commonly used word as its name (like "FEAR" or "Volume") its number of Youtube views might be wrong.

Games similar to this one:

# Game Release date
Price
Score rank
(Userscore / Metascore)
Owners
Players
Playtime (Median)
1 Lazerbait Oct 14, 2016 Free97% (97%)20,000 .. 50,0001.54%00:09 (00:03)
2 Quar: Battle for Gate 18 Apr 4, 2016 $12.9987% (93%)20,000 .. 50,0000%00:00 (00:00)
3 UFHO2 Jun 2, 2015 FreeN/A (N/A)20,000 .. 50,0001.28%01:07 (00:22)
4 Kohan II: Kings of War Sep 21, 2004 $9.9980% (91%/81%)20,000 .. 50,0000%00:00 (00:00)
5 Sacrifice Nov 1, 2000 $9.9980% (91%/89%)50,000 .. 100,0000%00:00 (00:00)
6 Khet 2.0 Oct 1, 2014 $9.9980% (91%)50,000 .. 100,0000%00:00 (00:00)
7 Company of Heroes: Opposing Fronts Sep 27, 2007 $19.9980% (91%/87%)2,000,000 .. 5,000,0000.13%00:01 (00:00)
8 X-COM: Apocalypse Jul 15, 1997 $4.9977% (90%)500,000 .. 1,000,0000.19%01:28 (00:29)
9 ThreadSpace: Hyperbol Jul 12, 2007 $9.99N/A (N/A)20,000 .. 50,0000%00:00 (00:00)
10 Swords and Soldiers HD Dec 2, 2010 $9.9977% (90%)100,000 .. 200,0000.47%00:42 (01:08)
11 Decisive Campaigns: Case Blue May 7, 2015 $39.99N/A (N/A)0 .. 20,0000%00:00 (00:00)
12 MoonBase Commander Aug 13, 2002 $5.9974% (89%/77%)0 .. 20,0000%00:00 (00:00)
13 Codename: Panzers, Phase Two Feb 18, 2016 $14.9974% (89%/80%)20,000 .. 50,0004.35%05:09 (01:43)
14 Silent Storm Gold Edition Sep 9, 2004 $9.9974% (89%/83%)100,000 .. 200,0000%00:00 (00:00)
15 Warhammer 40,000: Dawn of War – Winter Assault Jan 1, 2006 $12.9974% (89%)500,000 .. 1,000,0000.29%01:18 (00:51)
16 Cosmic Trip Nov 3, 2016 $19.9974% (89%)0 .. 20,0000%00:00 (00:00)
17 Archon Classic Nov 2, 2010 $9.9974% (89%)20,000 .. 50,0000%00:00 (00:00)
18 Magnifico Dec 2, 2014 $4.9968% (87%)50,000 .. 100,0000%00:00 (00:00)
19 Pang Adventures Apr 18, 2016 $9.9968% (87%)20,000 .. 50,0002.3%04:25 (02:56)
20 Supreme Commander Feb 20, 2007 $12.9968% (87%/86%)500,000 .. 1,000,0000.47%02:43 (02:28)
21 Sang-Froid - Tales of Werewolves Apr 5, 2013 Free68% (87%/79%)200,000 .. 500,0000.18%05:59 (01:59)
22 Out of Ammo Sep 14, 2016 $14.9966% (86%)20,000 .. 50,0006.9%00:21 (00:11)
23 Rush for Berlin Gold Oct 29, 2009 $4.9966% (86%/76%)20,000 .. 50,0000%00:00 (00:00)
24 Joint Task Force Sep 12, 2006 $9.9966% (86%/68%)20,000 .. 50,0000%00:00 (00:00)
25 Civilization IV: Warlords Jul 24, 2006 $4.9966% (86%/84%)1,000,000 .. 2,000,0000%00:00 (00:00)
26 Ground Control Anthology Jul 8, 2015 $4.9966% (86%/86%)20,000 .. 50,0000%00:00 (00:00)
27 Battle Academy Apr 16, 2014 $14.9963% (85%)20,000 .. 50,0000%00:00 (00:00)
28 Cossacks: Art of War Mar 31, 2002 $4.9960% (84%/74%)50,000 .. 100,0000%00:00 (00:00)
29 Rooks Keep Dec 5, 2014 $7.9960% (84%)20,000 .. 50,0001.02%00:01 (00:00)
30 Ground Control II: Operation Exodus Jul 8, 2015 $4.9960% (84%/80%)20,000 .. 50,0000%00:00 (00:00)
31 Eador: Genesis Aug 7, 2009 $5.9958% (83%)50,000 .. 100,0000.73%00:23 (00:07)
32 Conflict Desert Storm Sep 13, 2002 $6.9958% (83%/56%)20,000 .. 50,0000%00:00 (00:00)
33 Seven Kingdoms 2 HD Feb 4, 2015 $9.9955% (82%)20,000 .. 50,0000%00:00 (00:00)
34 Disciples Sacred Lands Gold Oct 7, 2014 $7.9955% (82%)20,000 .. 50,0000%00:00 (00:00)
35 Wyrmsun May 22, 2015 Free55% (82%)20,000 .. 50,0000%00:00 (00:00)
36 SHOGUN: Total War - Collection Jun 25, 2015 $9.9955% (82%)20,000 .. 50,0000%00:00 (00:00)
37 Commandos: Beyond the Call of Duty Apr 7, 1999 $4.9955% (82%)500,000 .. 1,000,0000.56%00:22 (00:22)
38 Space Empires IV Deluxe Feb 7, 2006 $9.9955% (82%/79%)50,000 .. 100,0000%00:00 (00:00)
39 Age of Wonders Oct 2010 $1.4953% (81%)100,000 .. 200,0000%00:00 (00:00)
40 Dwarfs!? May 4, 2011 $9.9953% (81%)200,000 .. 500,0000.39%00:43 (00:28)
41 Microgons Mar 27, 2017 FreeN/A (N/A)0 .. 20,0000%00:00 (00:00)
42 Gunman Taco Truck Jan 28, 2017 $1.9953% (81%)0 .. 20,0000%00:00 (00:00)
43 Men of War: Red Tide Nov 1, 2009 $4.9953% (81%/77%)200,000 .. 500,0000%00:00 (00:00)
44 Cluck Yegger in Escape From The Planet of The Poultroid Nov 9, 2015 $2.99N/A (N/A)0 .. 20,0000%00:00 (00:00)
45 Tiny Troopers Aug 24, 2012 $4.9953% (81%/57%)100,000 .. 200,0000%00:00 (00:00)
46 Demolition Inc. Sep 19, 2011 $5.9951% (80%)50,000 .. 100,0000%00:00 (00:00)
47 Perimeter Apr 3, 2014 $3.9951% (80%/77%)20,000 .. 50,0000%00:00 (00:00)
48 Fantasy Wars Aug 6, 2010 $4.9951% (80%/67%)50,000 .. 100,0000%00:00 (00:00)
49 Conquest of Elysium 3 Oct 24, 2012 $9.9951% (80%)20,000 .. 50,0000%00:00 (00:00)
50 Dominions 3: The Awakening Sep 10, 2013 $19.9951% (80%/82%)0 .. 20,0000%00:00 (00:00)
51 Locoland May 28, 2015 $4.9951% (80%)0 .. 20,0000%00:00 (00:00)
52 Supreme Ruler 2020 Gold Jun 17, 2008 $9.9951% (80%/65%)50,000 .. 100,0000%00:00 (00:00)
53 ROD: Revolt Of Defense Aug 12, 2016 $0.9951% (80%)20,000 .. 50,0000%00:00 (00:00)
54 Legends of Callasia Jun 10, 2016 Free51% (80%)50,000 .. 100,0000%00:00 (00:00)
55 Fate of the World Feb 28, 2011 $9.9951% (80%/70%)50,000 .. 100,0000%00:00 (00:00)
56 Disciples II: Rise of the Elves Jul 6, 2006 $6.9949% (79%/80%)100,000 .. 200,0000%00:00 (00:00)
57 Age of Wonders II: The Wizard's Throne Oct 2010 $9.9947% (78%/86%)50,000 .. 100,0000%00:00 (00:00)
58 Starscape Mar 27, 2003 $7.9947% (78%)0 .. 20,0000%00:00 (00:00)
59 Harvest: Massive Encounter Mar 5, 2008 $7.9947% (78%)20,000 .. 50,0000%00:00 (00:00)
60 Reprisal Universe Sep 15, 2014 $6.9947% (78%)20,000 .. 50,0000%00:00 (00:00)
61 A Healer Only Lives Twice Jun 2, 2016 $2.9945% (77%)0 .. 20,0000%00:00 (00:00)
62 Imperium Romanum Gold Edition Oct 30, 2008 $9.9945% (77%/63%)100,000 .. 200,0000%00:00 (00:00)
63 Dangerous Waters Feb 7, 2006 $14.9945% (77%/82%)50,000 .. 100,0000%00:00 (00:00)
64 Heroes of Might & Magic V: Hammers of Fate Nov 14, 2006 $9.9945% (77%/66%)200,000 .. 500,0000%00:00 (00:00)
65 ORB Mar 13, 2014 $4.9945% (77%)0 .. 20,0000%00:00 (00:00)
66 Cue Club 2: Pool & Snooker Mar 7, 2016 $18.9943% (76%)0 .. 20,0000%00:00 (00:00)
67 Civil War II Jul 3, 2014 $39.9943% (76%)0 .. 20,0000%00:00 (00:00)
68 Praetorians Apr 11, 2014 $4.9943% (76%/78%)50,000 .. 100,0000%00:00 (00:00)
69 Perimeter: Emperor's Testament May 22, 2014 $3.99N/A (N/A/72%)20,000 .. 50,0000%00:00 (00:00)
70 Vegas: Make It Big Dec 21, 2006 $4.9941% (75%)20,000 .. 50,0000%00:00 (00:00)
71 Fritz for Fun 13 Dec 10, 2014 $19.99N/A (N/A)0 .. 20,0000%00:00 (00:00)
72 WARSHIFT Oct 12, 2016 $12.9941% (75%)20,000 .. 50,0000%00:00 (00:00)
73 World War I Apr 9, 2015 $4.9941% (75%)20,000 .. 50,0000%00:00 (00:00)
74 Cubemen Mar 16, 2012 $3.9941% (75%/74%)100,000 .. 200,0000%00:00 (00:00)
75 Honey Rose: Underdog Fighter Extraordinaire Sep 29, 2016 FreeN/A (N/A)20,000 .. 50,0000%00:00 (00:00)
76 TableTop Soccer Apr 22, 2016 $0.9939% (74%)0 .. 20,0000%00:00 (00:00)
77 AirMech Command Mar 8, 2017 $19.9939% (74%)0 .. 20,0000%00:00 (00:00)
78 688(I) Hunter/Killer Jul 4, 1997 $9.9937% (73%)20,000 .. 50,0000%00:00 (00:00)
79 Cossacks: European Wars Apr 24, 2001 $4.9937% (73%/74%)100,000 .. 200,0000%00:00 (00:00)
80 Grand Ages: Rome Mar 20, 2009 $9.9937% (73%/72%)200,000 .. 500,0000.5%00:14 (00:04)
81 Battlestations: Midway Jan 30, 2007 $6.9937% (73%/76%)200,000 .. 500,0000.26%00:01 (00:00)
82 Rome: Total War - Alexander Jun 26, 2006 $4.9934% (71%/79%)500,000 .. 1,000,0000.2%01:25 (00:28)
83 Children of Orc Dec 20, 2016 Free34% (71%)20,000 .. 50,0002.94%00:01 (00:00)
84 The Guild Gold Edition Nov 18, 2002 $9.9934% (71%/82%)100,000 .. 200,0000.61%13:37 (04:32)
85 War in a Box: Paper Tanks Jul 4, 2014 $4.9934% (71%)20,000 .. 50,0000%00:00 (00:00)
86 Brigade E5: New Jagged Union Apr 30, 2014 $3.9933% (70%/41%)0 .. 20,0000%00:00 (00:00)
87 Desperados: Wanted Dead or Alive Jul 23, 2001 $4.9933% (70%/78%)100,000 .. 200,0004.51%00:10 (00:16)
88 Wildlife Park 2 - Crazy Zoo Jul 17, 2014 $3.99N/A (N/A)20,000 .. 50,0000%00:00 (00:00)
89 Darwinia Jul 14, 2005 $9.9933% (70%/84%)500,000 .. 1,000,0000.15%00:12 (00:04)
90 UFO: Aftershock Apr 16, 2014 $3.9931% (69%)50,000 .. 100,0000%00:00 (00:00)
91 The Nightmare Cooperative Jul 16, 2014 $4.9931% (69%)50,000 .. 100,0000%00:00 (00:00)
92 Legions of Ashworld Jul 4, 2014 $4.99N/A (N/A)0 .. 20,0000%00:00 (00:00)
93 Void Destroyer Jan 20, 2015 $9.9929% (68%)50,000 .. 100,0000%00:00 (00:00)
94 Cthulhu Realms Jul 1, 2016 Free29% (68%)50,000 .. 100,0000%00:00 (00:00)
95 American Conquest Feb 7, 2003 $4.9929% (68%/76%)100,000 .. 200,0000%00:00 (00:00)
96 American Conquest: Fight Back Sep 30, 2003 $4.9929% (68%/66%)100,000 .. 200,0000%00:00 (00:00)
97 Nomad Fleet Apr 19, 2016 $9.9928% (67%)20,000 .. 50,0000%00:00 (00:00)
98 Europa Universalis: Rome - Gold Edition Nov 19, 2008 $9.9928% (67%/79%)50,000 .. 100,0000%00:00 (00:00)
99 Alea Jacta Est Nov 4, 2014 $24.9928% (67%)0 .. 20,0000%00:00 (00:00)
100 Survivor Squad: Gauntlets Nov 16, 2015 $4.9928% (67%)20,000 .. 50,0000%00:00 (00:00)
101 Sub Command Oct 1, 2001 $9.99N/A (N/A/84%)20,000 .. 50,0003.85%04:05 (01:21)
102 Men of War: Condemned Heroes Apr 12, 2012 $7.9927% (66%/57%)100,000 .. 200,0000%00:00 (00:00)
103 Across the Rhine Nov 6, 2014 $6.99N/A (N/A)0 .. 20,0000%00:00 (00:00)
104 Marauder Apr 4, 2014 $9.9925% (65%)20,000 .. 50,0000%00:00 (00:00)
105 Planets Under Attack Sep 27, 2012 $9.9925% (65%)500,000 .. 1,000,0001.38%02:38 (03:05)
106 Full Spectrum Warrior: Ten Hammers Mar 27, 2006 $2.4925% (65%/70%)100,000 .. 200,0000.58%00:01 (00:00)
107 Crusader Kings Complete Feb 14, 2012 $9.9924% (64%/73%)50,000 .. 100,0000%00:00 (00:00)
108 Rise: Battle Lines Nov 17, 2015 $1.9924% (64%)0 .. 20,0000%00:00 (00:00)
109 Hunters Of The Dead Sep 4, 2014 $4.9924% (64%)20,000 .. 50,0000%00:00 (00:00)
110 The Seven Years War (1756-1763) Oct 30, 2015 $19.9924% (64%)0 .. 20,0000%00:00 (00:00)
111 UFO: Afterlight Feb 8, 2007 $6.9923% (63%/71%)200,000 .. 500,0000%00:00 (00:00)
112 Port Royale 2 Apr 30, 2004 $4.9923% (63%/75%)50,000 .. 100,0000%00:00 (00:00)
113 Maelstrom: The Battle for Earth Begins Feb 20, 2007 $4.9922% (62%/58%)50,000 .. 100,0000%00:00 (00:00)
114 Crown and Council Apr 22, 2016 Free22% (62%)100,000 .. 200,0000%00:00 (00:00)
115 Haegemonia: The Solon Heritage May 1, 2014 $4.9922% (62%)50,000 .. 100,0000%00:00 (00:00)
116 To End All Wars Aug 29, 2014 $39.9921% (61%/71%)0 .. 20,0000%00:00 (00:00)
117 BattleLore: Command Mar 31, 2015 $6.9921% (61%)0 .. 20,0000%00:00 (00:00)
118 Legions of Steel Jul 16, 2015 $19.99N/A (N/A/64%)0 .. 20,0000%00:00 (00:00)
119 Sudden Strike 3 Dec 7, 2007 $5.99N/A (N/A)20,000 .. 50,0000%00:00 (00:00)
120 Robin Hood: The Legend of Sherwood Nov 1, 2002 $7.9921% (61%/80%)100,000 .. 200,0000.51%00:02 (00:00)
121 Codename: Panzers - Cold War Mar 10, 2009 $14.9921% (61%)20,000 .. 50,0000%00:00 (00:00)
122 Hydrophobia: Prophecy May 9, 2011 $4.9919% (60%/64%)200,000 .. 500,0000%00:00 (00:00)
123 Quarantine Feb 9, 2017 $9.9918% (59%)0 .. 20,0000%00:00 (00:00)
124 Crystal Rift Mar 30, 2016 $9.9917% (58%)0 .. 20,0000%00:00 (00:00)
125 Rush for Glory Jun 16, 2014 $14.9917% (58%)50,000 .. 100,0000%00:00 (00:00)
126 Achron Aug 29, 2011 $19.9917% (58%/54%)0 .. 20,0000%00:00 (00:00)
127 Blight of the Immortals Oct 25, 2016 FreeN/A (N/A)0 .. 20,0000%00:00 (00:00)
128 Cossacks II: Battle for Europe Jun 19, 2006 $4.9916% (57%/69%)100,000 .. 200,0000.92%00:14 (00:04)
129 9th Company: Roots Of Terror Dec 3, 2009 $9.9916% (57%)20,000 .. 50,0000%00:00 (00:00)
130 Neocolonialism Dec 1, 2014 $2.99N/A (N/A)0 .. 20,0000%00:00 (00:00)
131 BC Kings Sep 15, 2008 $4.9915% (55%)20,000 .. 50,0002.78%00:02 (00:00)
132 Earth 2140 Nov 15, 2013 $4.9915% (55%)200,000 .. 500,0000.97%03:08 (03:43)
133 Gratuitous Tank Battles May 17, 2012 $9.9915% (55%/69%)50,000 .. 100,0000%00:00 (00:00)
134 Crusaders: Thy Kingdom Come Oct 8, 2009 $9.99N/A (N/A)20,000 .. 50,0000%00:00 (00:00)
135 Viking: Battle for Asgard Oct 17, 2012 $14.9913% (53%)1,000,000 .. 2,000,0000.13%00:24 (00:15)
136 Space Trader: Merchant Marine Oct 23, 2008 $4.9913% (52%)200,000 .. 500,0000.28%00:01 (00:00)
137 Gods vs Humans Oct 10, 2014 $4.9913% (52%)20,000 .. 50,0000%00:00 (00:00)
138 X-COM: Enforcer Apr 19, 2001 $4.9913% (52%/65%)500,000 .. 1,000,0000.2%00:22 (00:07)
139 Red Faction II Apr 9, 2003 $9.9912% (51%/64%)500,000 .. 1,000,0000.68%02:31 (02:30)
140 X-COM: Interceptor Jun 15, 1998 $4.9911% (50%)500,000 .. 1,000,0000.2%00:09 (00:03)
141 Evolution RTS Apr 7, 2014 Free11% (49%)100,000 .. 200,0000%00:00 (00:00)
142 Master of Orion 3 Aug 25, 2016 $9.99N/A (N/A/64%)100,000 .. 200,0000%00:00 (00:00)
143 Aggression: Europe Under Fire Apr 9, 2014 $9.9910% (48%)0 .. 20,0000%00:00 (00:00)
144 Hero Generations Apr 10, 2015 $5.999% (47%)0 .. 20,0000%00:00 (00:00)
145 Leviathan: Warships Apr 30, 2013 $9.999% (47%)200,000 .. 500,0000%00:00 (00:00)
146 East India Company Jul 31, 2009 $9.999% (47%/67%)50,000 .. 100,0000%00:00 (00:00)
147 XIII Century – Gold Edition Aug 28, 2009 $4.999% (46%)50,000 .. 100,0000%00:00 (00:00)
148 Hell Nov 13, 2014 $29.99N/A (N/A)0 .. 20,0000%00:00 (00:00)
149 Arms Dealer Mar 26, 2015 $5.998% (45%)0 .. 20,0000%00:00 (00:00)
150 The Fleets of Sol Apr 1, 2016 $8.99N/A (N/A)0 .. 20,0000%00:00 (00:00)
151 Galactic Civilizations I: Ultimate Edition Aug 14, 2012 $9.998% (45%/83%)200,000 .. 500,0000%00:00 (00:00)
152 Master of Magic Chess May 23, 2017 Free8% (44%)0 .. 20,0000%00:00 (00:00)
153 Desperados 2: Cooper's Revenge May 2, 2006 $9.998% (44%/66%)50,000 .. 100,0000.94%00:04 (00:01)
154 Skyward Collapse May 23, 2013 $4.998% (43%/64%)100,000 .. 200,0000%00:00 (00:00)
155 Shattered Union Oct 17, 2005 $4.998% (43%/67%)20,000 .. 50,0000%00:00 (00:00)
156 DUNGEONS - Steam Special Edition Feb 10, 2011 $9.998% (43%/65%)200,000 .. 500,0000%00:00 (00:00)
157 Mars 2030 Mar 11, 2016 $4.99N/A (N/A)0 .. 20,0000%00:00 (00:00)
158 Naval War: Arctic Circle Apr 10, 2012 $19.997% (42%/64%)50,000 .. 100,0000%00:00 (00:00)
159 Real Warfare 2: Northern Crusades Nov 18, 2011 $4.997% (41%)20,000 .. 50,0000%00:00 (00:00)
160 Theatre of War 3: Korea Mar 24, 2011 $6.997% (41%/49%)50,000 .. 100,0000%00:00 (00:00)
161 Guardians of Graxia Nov 10, 2010 $4.997% (41%)50,000 .. 100,0000%00:00 (00:00)
162 Dungeons - The Dark Lord Sep 27, 2011 $19.996% (40%/72%)100,000 .. 200,0000%00:00 (00:00)
163 Ancient Space Sep 23, 2014 $19.996% (40%)20,000 .. 50,0002.27%00:27 (00:09)
164 Two Worlds II Castle Defense Jun 14, 2011 $9.996% (40%)500,000 .. 1,000,0001.13%03:57 (05:32)
165 Cossacks II: Napoleonic Wars Apr 26, 2005 $4.996% (39%/73%)100,000 .. 200,0000%00:00 (00:00)
166 Sacraboar Nov 6, 2009 $2.995% (35%)20,000 .. 50,0000%00:00 (00:00)
167 Fallen: A2P Protocol Aug 14, 2015 $9.994% (34%)20,000 .. 50,0000%00:00 (00:00)
168 Arena Wars 2 Oct 12, 2012 $3.994% (32%)50,000 .. 100,0000%00:00 (00:00)
169 Disciples III - Resurrection Oct 11, 2011 $14.994% (31%/63%)100,000 .. 200,0000%00:00 (00:00)
170 US and THEM Mar 18, 2014 $2.994% (31%)20,000 .. 50,0000%00:00 (00:00)
171 Feudalism Jun 14, 2016 $14.99N/A (N/A)0 .. 20,0000%00:00 (00:00)
172 Tiestru Aug 20, 2014 $9.99N/A (N/A)20,000 .. 50,0000%00:00 (00:00)
173 Genesis Rising Mar 20, 2007 $4.992% (23%/57%)20,000 .. 50,0002.22%00:01 (00:00)
174 APOX Jan 20, 2011 $14.992% (23%/48%)20,000 .. 50,0000%00:00 (00:00)
175 Perimeter 2: New Earth Feb 10, 2009 $14.99N/A (N/A/43%)0 .. 20,0000%00:00 (00:00)
176 Ironclads: American Civil War Jan 8, 2009 $9.99N/A (N/A)20,000 .. 50,0000%00:00 (00:00)
177 Tryst Sep 14, 2012 $14.99N/A (N/A/50%)0 .. 20,0000%00:00 (00:00)
178 Prison Tycoon 3: Lockdown Aug 1, 2007 $9.991% (16%)20,000 .. 50,0000%00:00 (00:00)
179 Citadels Jul 25, 2013 $14.991% (13%/20%)20,000 .. 50,0000%00:00 (00:00)
180 Spaceforce Constellations Dec 12, 2013 $9.99N/A (N/A)0 .. 20,0000%00:00 (00:00)

Owners of this game also own:

Access restricted.

This feature is only available to users with special access rights. Sorry.

If you want to proceed, you need to register or log in first and then back Steam Spy on Patreon. Look for Indie or Pro pledge.

Don't forget to use the same email as on Steam Spy!

Playtime distribution:

Access restricted.

This feature is only available to users with special access rights. Sorry.

If you want to proceed, you need to register or log in first and then back Steam Spy on Patreon. Look for Indie or Pro pledge.

Don't forget to use the same email as on Steam Spy!

Playtime (2 weeks):

Access restricted.

This feature is only available to users with special access rights. Sorry.

If you want to proceed, you need to register or log in first and then back Steam Spy on Patreon. Look for Indie or Pro pledge.

Don't forget to use the same email as on Steam Spy!

User reviews:

Login required.

Please register or log in to see this information.